sensor_id;sensor_type;location;lat;lon;timestamp;pressure;altitude;pressure_sealevel;temperature;humidity
82575;BME280;72260;65.870;13.210;2024-02-21T00:02:16;99145.56;;;1.64;86.86
82575;BME280;72260;65.870;13.210;2024-02-21T00:04:43;99141.53;;;1.58;86.65
82575;BME280;72260;65.870;13.210;2024-02-21T00:07:09;99150.75;;;1.64;87.19
82575;BME280;72260;65.870;13.210;2024-02-21T00:09:34;99151.00;;;1.77;87.03
82575;BME280;72260;65.870;13.210;2024-02-21T00:12:00;99133.63;;;1.77;85.78
82575;BME280;72260;65.870;13.210;2024-02-21T00:14:26;99138.66;;;1.63;85.07
82575;BME280;72260;65.870;13.210;2024-02-21T00:16:52;99142.44;;;1.57;85.53
82575;BME280;72260;65.870;13.210;2024-02-21T00:19:17;99145.84;;;1.41;85.40
82575;BME280;72260;65.870;13.210;2024-02-21T00:21:43;99152.13;;;1.37;85.48
82575;BME280;72260;65.870;13.210;2024-02-21T00:24:08;99162.53;;;1.37;85.53
82575;BME280;72260;65.870;13.210;2024-02-21T00:26:34;99152.25;;;1.33;86.08
82575;BME280;72260;65.870;13.210;2024-02-21T00:28:59;99162.44;;;1.21;86.11
82575;BME280;72260;65.870;13.210;2024-02-21T00:31:25;99161.94;;;1.13;86.07
82575;BME280;72260;65.870;13.210;2024-02-21T00:33:50;99158.06;;;1.21;86.02
82575;BME280;72260;65.870;13.210;2024-02-21T00:36:16;99171.44;;;1.14;85.74
82575;BME280;72260;65.870;13.210;2024-02-21T00:38:41;99168.00;;;1.13;85.90
82575;BME280;72260;65.870;13.210;2024-02-21T00:41:07;99164.78;;;1.08;86.09
82575;BME280;72260;65.870;13.210;2024-02-21T00:43:33;99155.50;;;0.84;86.16
82575;BME280;72260;65.870;13.210;2024-02-21T00:45:58;99166.00;;;0.63;87.06
82575;BME280;72260;65.870;13.210;2024-02-21T00:48:24;99160.56;;;0.68;88.48
82575;BME280;72260;65.870;13.210;2024-02-21T00:50:49;99153.97;;;0.80;88.78
82575;BME280;72260;65.870;13.210;2024-02-21T00:53:15;99150.44;;;0.81;88.71
82575;BME280;72260;65.870;13.210;2024-02-21T00:55:40;99143.47;;;1.00;89.42
82575;BME280;72260;65.870;13.210;2024-02-21T00:58:06;99147.88;;;0.98;89.38
82575;BME280;72260;65.870;13.210;2024-02-21T01:00:32;99149.31;;;0.86;88.35
82575;BME280;72260;65.870;13.210;2024-02-21T01:02:57;99162.69;;;0.79;89.16
82575;BME280;72260;65.870;13.210;2024-02-21T01:05:23;99163.31;;;0.84;89.13
82575;BME280;72260;65.870;13.210;2024-02-21T01:07:49;99169.16;;;0.89;89.54
82575;BME280;72260;65.870;13.210;2024-02-21T01:10:14;99168.50;;;0.84;89.50
82575;BME280;72260;65.870;13.210;2024-02-21T01:12:40;99173.84;;;0.99;89.80
82575;BME280;72260;65.870;13.210;2024-02-21T01:15:05;99174.47;;;1.05;89.25
82575;BME280;72260;65.870;13.210;2024-02-21T01:17:31;99179.41;;;0.92;89.47
82575;BME280;72260;65.870;13.210;2024-02-21T01:19:56;99176.75;;;0.93;89.06
82575;BME280;72260;65.870;13.210;2024-02-21T01:22:22;99170.13;;;1.05;89.12
82575;BME280;72260;65.870;13.210;2024-02-21T01:24:47;99165.19;;;0.99;89.34
82575;BME280;72260;65.870;13.210;2024-02-21T01:27:14;99164.84;;;1.07;88.97
82575;BME280;72260;65.870;13.210;2024-02-21T01:29:40;99165.13;;;1.00;89.29
82575;BME280;72260;65.870;13.210;2024-02-21T01:32:06;99180.47;;;0.88;89.69
82575;BME280;72260;65.870;13.210;2024-02-21T01:34:32;99198.47;;;0.92;90.29
82575;BME280;72260;65.870;13.210;2024-02-21T01:36:58;99201.78;;;0.96;90.54
82575;BME280;72260;65.870;13.210;2024-02-21T01:39:24;99187.97;;;1.13;89.47
82575;BME280;72260;65.870;13.210;2024-02-21T01:41:50;99188.72;;;1.33;89.55
82575;BME280;72260;65.870;13.210;2024-02-21T01:44:16;99191.19;;;1.37;89.39
82575;BME280;72260;65.870;13.210;2024-02-21T01:46:41;99197.72;;;1.45;89.16
82575;BME280;72260;65.870;13.210;2024-02-21T01:49:07;99193.97;;;1.51;89.46
82575;BME280;72260;65.870;13.210;2024-02-21T01:51:33;99191.38;;;1.51;88.51
82575;BME280;72260;65.870;13.210;2024-02-21T01:53:58;99190.16;;;1.58;88.86
82575;BME280;72260;65.870;13.210;2024-02-21T01:56:24;99203.19;;;1.58;88.41
82575;BME280;72260;65.870;13.210;2024-02-21T01:58:51;99224.78;;;1.60;88.10
82575;BME280;72260;65.870;13.210;2024-02-21T02:01:17;99221.72;;;1.52;88.61
82575;BME280;72260;65.870;13.210;2024-02-21T02:03:45;99197.06;;;1.59;88.12
82575;BME280;72260;65.870;13.210;2024-02-21T02:06:10;99198.97;;;1.55;87.68
82575;BME280;72260;65.870;13.210;2024-02-21T02:08:36;99202.06;;;1.45;87.85
82575;BME280;72260;65.870;13.210;2024-02-21T02:11:02;99182.75;;;1.31;87.71
82575;BME280;72260;65.870;13.210;2024-02-21T02:13:29;99194.25;;;1.27;88.96
82575;BME280;72260;65.870;13.210;2024-02-21T02:15:54;99197.00;;;1.42;89.27
82575;BME280;72260;65.870;13.210;2024-02-21T02:18:21;99204.13;;;1.38;88.69
82575;BME280;72260;65.870;13.210;2024-02-21T02:20:47;99203.75;;;1.46;88.63
82575;BME280;72260;65.870;13.210;2024-02-21T02:25:52;99205.59;;;1.44;87.29
82575;BME280;72260;65.870;13.210;2024-02-21T02:28:18;99199.13;;;1.33;86.98
82575;BME280;72260;65.870;13.210;2024-02-21T02:30:44;99206.63;;;1.22;87.28
82575;BME280;72260;65.870;13.210;2024-02-21T02:33:10;99207.56;;;1.39;88.06
82575;BME280;72260;65.870;13.210;2024-02-21T02:35:35;99214.81;;;1.32;88.06
82575;BME280;72260;65.870;13.210;2024-02-21T02:38:03;99197.09;;;1.40;88.63
82575;BME280;72260;65.870;13.210;2024-02-21T02:40:30;99202.97;;;1.62;88.40
82575;BME280;72260;65.870;13.210;2024-02-21T02:42:55;99221.50;;;1.74;87.88
82575;BME280;72260;65.870;13.210;2024-02-21T02:45:22;99214.53;;;1.74;88.47
82575;BME280;72260;65.870;13.210;2024-02-21T02:47:54;99199.75;;;1.75;87.93
82575;BME280;72260;65.870;13.210;2024-02-21T02:50:20;99202.34;;;1.75;87.23
82575;BME280;72260;65.870;13.210;2024-02-21T02:52:45;99197.06;;;1.59;87.04
82575;BME280;72260;65.870;13.210;2024-02-21T02:55:11;99211.78;;;1.60;87.25
82575;BME280;72260;65.870;13.210;2024-02-21T02:57:37;99209.41;;;1.73;88.42
82575;BME280;72260;65.870;13.210;2024-02-21T03:00:04;99215.81;;;1.65;88.57
82575;BME280;72260;65.870;13.210;2024-02-21T03:02:29;99213.22;;;1.65;88.67
82575;BME280;72260;65.870;13.210;2024-02-21T03:04:56;99208.56;;;1.72;87.80
82575;BME280;72260;65.870;13.210;2024-02-21T03:07:23;99207.84;;;1.68;87.48
82575;BME280;72260;65.870;13.210;2024-02-21T03:09:49;99213.91;;;1.69;87.76
82575;BME280;72260;65.870;13.210;2024-02-21T03:12:15;99219.09;;;1.52;87.35
82575;BME280;72260;65.870;13.210;2024-02-21T03:14:49;99222.63;;;1.51;88.14
82575;BME280;72260;65.870;13.210;2024-02-21T03:17:15;99232.13;;;1.52;88.57
82575;BME280;72260;65.870;13.210;2024-02-21T03:19:40;99241.78;;;1.50;88.80
82575;BME280;72260;65.870;13.210;2024-02-21T03:22:05;99220.59;;;1.39;88.84
82575;BME280;72260;65.870;13.210;2024-02-21T03:24:31;99235.03;;;1.46;88.59
82575;BME280;72260;65.870;13.210;2024-02-21T03:26:57;99233.97;;;1.50;87.96
82575;BME280;72260;65.870;13.210;2024-02-21T03:29:24;99235.38;;;1.38;87.81
82575;BME280;72260;65.870;13.210;2024-02-21T03:31:50;99230.66;;;1.46;88.22
82575;BME280;72260;65.870;13.210;2024-02-21T03:34:15;99228.97;;;1.45;87.64
82575;BME280;72260;65.870;13.210;2024-02-21T03:36:41;99238.75;;;1.40;87.66
82575;BME280;72260;65.870;13.210;2024-02-21T03:39:07;99229.47;;;1.34;88.26
82575;BME280;72260;65.870;13.210;2024-02-21T03:41:34;99235.81;;;1.29;89.09
82575;BME280;72260;65.870;13.210;2024-02-21T03:44:01;99245.94;;;1.35;89.19
82575;BME280;72260;65.870;13.210;2024-02-21T03:46:27;99231.22;;;1.53;88.07
82575;BME280;72260;65.870;13.210;2024-02-21T03:48:53;99237.97;;;1.38;87.82
82575;BME280;72260;65.870;13.210;2024-02-21T03:51:19;99232.19;;;1.31;87.62
82575;BME280;72260;65.870;13.210;2024-02-21T03:53:44;99224.78;;;1.24;87.72
82575;BME280;72260;65.870;13.210;2024-02-21T03:56:10;99228.59;;;1.53;88.19
82575;BME280;72260;65.870;13.210;2024-02-21T03:58:35;99230.06;;;1.58;87.88
82575;BME280;72260;65.870;13.210;2024-02-21T04:01:01;99238.88;;;1.56;88.04
82575;BME280;72260;65.870;13.210;2024-02-21T04:03:27;99240.66;;;1.73;88.35
82575;BME280;72260;65.870;13.210;2024-02-21T04:05:53;99242.28;;;1.75;87.56
82575;BME280;72260;65.870;13.210;2024-02-21T04:08:18;99240.34;;;1.61;87.41
82575;BME280;72260;65.870;13.210;2024-02-21T04:10:44;99242.34;;;1.56;87.85
82575;BME280;72260;65.870;13.210;2024-02-21T04:13:09;99233.25;;;1.46;87.78
82575;BME280;72260;65.870;13.210;2024-02-21T04:15:35;99244.38;;;1.50;87.78
82575;BME280;72260;65.870;13.210;2024-02-21T04:18:01;99232.56;;;1.43;87.84
82575;BME280;72260;65.870;13.210;2024-02-21T04:20:31;99237.94;;;1.21;88.10
82575;BME280;72260;65.870;13.210;2024-02-21T04:22:57;99239.34;;;1.09;89.38
82575;BME280;72260;65.870;13.210;2024-02-21T04:25:23;99239.91;;;1.16;88.81
82575;BME280;72260;65.870;13.210;2024-02-21T04:27:49;99236.88;;;1.25;89.27
82575;BME280;72260;65.870;13.210;2024-02-21T04:30:15;99234.75;;;1.33;89.27
82575;BME280;72260;65.870;13.210;2024-02-21T04:32:41;99236.78;;;1.45;88.84
82575;BME280;72260;65.870;13.210;2024-02-21T04:35:07;99232.69;;;1.40;88.24
82575;BME280;72260;65.870;13.210;2024-02-21T04:37:33;99235.22;;;1.41;88.10
82575;BME280;72260;65.870;13.210;2024-02-21T04:39:59;99239.88;;;1.34;88.56
82575;BME280;72260;65.870;13.210;2024-02-21T04:42:24;99233.59;;;1.39;87.95
82575;BME280;72260;65.870;13.210;2024-02-21T04:44:50;99240.25;;;1.27;88.72
82575;BME280;72260;65.870;13.210;2024-02-21T04:47:15;99245.22;;;1.31;88.70
82575;BME280;72260;65.870;13.210;2024-02-21T04:49:41;99244.81;;;1.41;88.37
82575;BME280;72260;65.870;13.210;2024-02-21T04:52:06;99245.31;;;1.30;88.43
82575;BME280;72260;65.870;13.210;2024-02-21T04:54:32;99244.47;;;1.29;88.17
82575;BME280;72260;65.870;13.210;2024-02-21T04:56:57;99254.25;;;1.24;87.75
82575;BME280;72260;65.870;13.210;2024-02-21T04:59:23;99248.47;;;1.18;87.55
82575;BME280;72260;65.870;13.210;2024-02-21T05:01:48;99249.03;;;1.06;87.13
82575;BME280;72260;65.870;13.210;2024-02-21T05:04:15;99246.56;;;1.02;87.93
82575;BME280;72260;65.870;13.210;2024-02-21T05:06:41;99247.22;;;1.08;88.14
82575;BME280;72260;65.870;13.210;2024-02-21T05:09:07;99236.16;;;1.02;87.92
82575;BME280;72260;65.870;13.210;2024-02-21T05:11:36;99246.69;;;0.99;88.41
82575;BME280;72260;65.870;13.210;2024-02-21T05:14:03;99249.25;;;1.20;88.49
82575;BME280;72260;65.870;13.210;2024-02-21T05:16:29;99248.06;;;1.27;88.34
82575;BME280;72260;65.870;13.210;2024-02-21T05:18:55;99251.88;;;1.20;87.87
82575;BME280;72260;65.870;13.210;2024-02-21T05:21:23;99249.25;;;1.20;87.04
82575;BME280;72260;65.870;13.210;2024-02-21T05:23:49;99258.19;;;0.95;87.88
82575;BME280;72260;65.870;13.210;2024-02-21T05:26:22;99259.56;;;1.02;88.31
82575;BME280;72260;65.870;13.210;2024-02-21T05:28:48;99258.25;;;1.13;88.95
82575;BME280;72260;65.870;13.210;2024-02-21T05:31:13;99253.75;;;1.16;88.45
82575;BME280;72260;65.870;13.210;2024-02-21T05:33:39;99260.28;;;1.06;88.27
82575;BME280;72260;65.870;13.210;2024-02-21T05:36:05;99256.84;;;1.06;88.90
82575;BME280;72260;65.870;13.210;2024-02-21T05:38:31;99262.88;;;1.06;88.57
82575;BME280;72260;65.870;13.210;2024-02-21T05:40:56;99271.13;;;0.97;88.54
82575;BME280;72260;65.870;13.210;2024-02-21T05:43:22;99274.72;;;0.94;88.20
82575;BME280;72260;65.870;13.210;2024-02-21T05:45:48;99268.59;;;0.95;88.42
82575;BME280;72260;65.870;13.210;2024-02-21T05:48:14;99275.50;;;0.96;88.30
82575;BME280;72260;65.870;13.210;2024-02-21T05:50:39;99273.16;;;0.90;88.05
82575;BME280;72260;65.870;13.210;2024-02-21T05:53:05;99272.31;;;0.90;88.35
82575;BME280;72260;65.870;13.210;2024-02-21T05:55:30;99270.69;;;0.87;88.00
82575;BME280;72260;65.870;13.210;2024-02-21T05:57:56;99285.53;;;0.85;88.71
82575;BME280;72260;65.870;13.210;2024-02-21T06:00:21;99280.31;;;0.85;88.39
82575;BME280;72260;65.870;13.210;2024-02-21T06:02:47;99287.84;;;0.91;88.46
82575;BME280;72260;65.870;13.210;2024-02-21T06:05:12;99288.84;;;0.89;88.46
82575;BME280;72260;65.870;13.210;2024-02-21T06:07:38;99292.78;;;0.97;88.12
82575;BME280;72260;65.870;13.210;2024-02-21T06:10:07;99296.91;;;1.01;87.93
82575;BME280;72260;65.870;13.210;2024-02-21T06:12:32;99301.72;;;0.92;87.43
82575;BME280;72260;65.870;13.210;2024-02-21T06:14:58;99296.31;;;0.96;88.30
82575;BME280;72260;65.870;13.210;2024-02-21T06:17:23;99286.81;;;0.95;88.09
82575;BME280;72260;65.870;13.210;2024-02-21T06:19:49;99294.38;;;1.00;89.31
82575;BME280;72260;65.870;13.210;2024-02-21T06:22:14;99293.41;;;1.02;89.05
82575;BME280;72260;65.870;13.210;2024-02-21T06:24:40;99299.31;;;1.06;88.88
82575;BME280;72260;65.870;13.210;2024-02-21T06:29:33;99298.34;;;0.90;88.86
82575;BME280;72260;65.870;13.210;2024-02-21T06:31:59;99304.72;;;1.01;89.10
82575;BME280;72260;65.870;13.210;2024-02-21T06:34:24;99302.91;;;1.04;88.30
82575;BME280;72260;65.870;13.210;2024-02-21T06:36:50;99310.38;;;0.92;88.56
82575;BME280;72260;65.870;13.210;2024-02-21T06:39:16;99301.00;;;0.68;87.69
82575;BME280;72260;65.870;13.210;2024-02-21T06:41:42;99308.25;;;0.61;88.13
82575;BME280;72260;65.870;13.210;2024-02-21T06:44:07;99308.81;;;0.48;88.19
82575;BME280;72260;65.870;13.210;2024-02-21T06:46:33;99312.47;;;0.44;88.59
82575;BME280;72260;65.870;13.210;2024-02-21T06:49:00;99324.41;;;0.48;88.59
82575;BME280;72260;65.870;13.210;2024-02-21T06:51:26;99318.72;;;0.60;89.35
82575;BME280;72260;65.870;13.210;2024-02-21T06:53:52;99323.72;;;0.64;89.03
82575;BME280;72260;65.870;13.210;2024-02-21T06:56:18;99321.03;;;0.66;89.56
82575;BME280;72260;65.870;13.210;2024-02-21T06:58:44;99329.56;;;0.70;88.86
82575;BME280;72260;65.870;13.210;2024-02-21T07:01:10;99331.00;;;0.56;89.15
82575;BME280;72260;65.870;13.210;2024-02-21T07:03:35;99317.19;;;0.75;89.33
82575;BME280;72260;65.870;13.210;2024-02-21T07:06:01;99328.63;;;0.71;88.80
82575;BME280;72260;65.870;13.210;2024-02-21T07:08:27;99324.41;;;0.68;89.00
82575;BME280;72260;65.870;13.210;2024-02-21T07:10:52;99319.00;;;0.73;89.68
82575;BME280;72260;65.870;13.210;2024-02-21T07:13:18;99319.59;;;0.79;89.67
82575;BME280;72260;65.870;13.210;2024-02-21T07:15:43;99312.97;;;0.92;89.48
82575;BME280;72260;65.870;13.210;2024-02-21T07:18:09;99313.16;;;0.88;90.13
82575;BME280;72260;65.870;13.210;2024-02-21T07:20:34;99311.53;;;0.85;89.74
82575;BME280;72260;65.870;13.210;2024-02-21T07:23:03;99318.66;;;1.00;89.73
82575;BME280;72260;65.870;13.210;2024-02-21T07:25:28;99318.88;;;0.96;89.29
82575;BME280;72260;65.870;13.210;2024-02-21T07:27:54;99322.47;;;0.93;88.66
82575;BME280;72260;65.870;13.210;2024-02-21T07:30:19;99305.44;;;0.86;88.05
82575;BME280;72260;65.870;13.210;2024-02-21T07:32:45;99315.19;;;0.81;88.66
82575;BME280;72260;65.870;13.210;2024-02-21T07:35:10;99313.94;;;0.90;88.10
82575;BME280;72260;65.870;13.210;2024-02-21T07:37:37;99310.50;;;0.89;88.42
82575;BME280;72260;65.870;13.210;2024-02-21T07:40:11;99313.03;;;0.91;87.86
82575;BME280;72260;65.870;13.210;2024-02-21T07:42:37;99304.59;;;1.05;88.01
82575;BME280;72260;65.870;13.210;2024-02-21T07:45:03;99308.34;;;1.18;87.76
82575;BME280;72260;65.870;13.210;2024-02-21T07:47:28;99311.81;;;1.18;86.88
82575;BME280;72260;65.870;13.210;2024-02-21T07:49:54;99304.97;;;1.16;86.83
82575;BME280;72260;65.870;13.210;2024-02-21T07:52:20;99307.72;;;1.13;86.75
82575;BME280;72260;65.870;13.210;2024-02-21T07:54:45;99306.59;;;1.18;86.78
82575;BME280;72260;65.870;13.210;2024-02-21T07:57:10;99312.59;;;1.20;86.52
82575;BME280;72260;65.870;13.210;2024-02-21T07:59:36;99315.44;;;1.33;86.48
82575;BME280;72260;65.870;13.210;2024-02-21T08:02:01;99319.13;;;1.48;85.44
82575;BME280;72260;65.870;13.210;2024-02-21T08:04:34;99314.50;;;1.54;84.18
82575;BME280;72260;65.870;13.210;2024-02-21T08:06:59;99316.00;;;1.77;83.77
82575;BME280;72260;65.870;13.210;2024-02-21T08:09:28;99317.56;;;1.81;83.73
82575;BME280;72260;65.870;13.210;2024-02-21T08:11:57;99315.03;;;1.80;83.95
82575;BME280;72260;65.870;13.210;2024-02-21T08:14:22;99325.88;;;2.07;84.16
82575;BME280;72260;65.870;13.210;2024-02-21T08:16:50;99319.25;;;2.18;83.56
82575;BME280;72260;65.870;13.210;2024-02-21T08:19:16;99326.94;;;2.02;84.39
82575;BME280;72260;65.870;13.210;2024-02-21T08:21:42;99321.59;;;2.06;83.68
82575;BME280;72260;65.870;13.210;2024-02-21T08:24:08;99320.16;;;1.81;82.96
82575;BME280;72260;65.870;13.210;2024-02-21T08:26:33;99323.03;;;1.75;84.06
82575;BME280;72260;65.870;13.210;2024-02-21T08:28:59;99335.44;;;1.89;83.51
82575;BME280;72260;65.870;13.210;2024-02-21T08:31:25;99323.81;;;1.77;84.13
82575;BME280;72260;65.870;13.210;2024-02-21T08:33:59;99323.00;;;1.58;84.44
82575;BME280;72260;65.870;13.210;2024-02-21T08:36:31;99340.81;;;1.48;85.05
82575;BME280;72260;65.870;13.210;2024-02-21T08:38:58;99342.16;;;1.57;85.22
82575;BME280;72260;65.870;13.210;2024-02-21T08:41:26;99352.66;;;1.55;85.11
82575;BME280;72260;65.870;13.210;2024-02-21T08:43:53;99344.03;;;1.72;85.38
82575;BME280;72260;65.870;13.210;2024-02-21T08:46:20;99352.03;;;2.05;85.08
82575;BME280;72260;65.870;13.210;2024-02-21T08:48:50;99342.22;;;2.10;84.89
82575;BME280;72260;65.870;13.210;2024-02-21T08:51:17;99346.94;;;2.02;83.35
82575;BME280;72260;65.870;13.210;2024-02-21T08:53:44;99354.56;;;2.07;83.58
82575;BME280;72260;65.870;13.210;2024-02-21T08:56:09;99345.81;;;2.08;84.09
82575;BME280;72260;65.870;13.210;2024-02-21T08:58:40;99346.22;;;2.17;83.98
82575;BME280;72260;65.870;13.210;2024-02-21T09:01:06;99345.03;;;2.24;84.08
82575;BME280;72260;65.870;13.210;2024-02-21T09:03:36;99348.84;;;2.34;83.69
82575;BME280;72260;65.870;13.210;2024-02-21T09:06:03;99344.31;;;2.38;83.74
82575;BME280;72260;65.870;13.210;2024-02-21T09:08:29;99329.59;;;2.37;83.40
82575;BME280;72260;65.870;13.210;2024-02-21T09:10:55;99339.34;;;2.51;82.68
82575;BME280;72260;65.870;13.210;2024-02-21T09:13:20;99339.41;;;2.66;82.36
82575;BME280;72260;65.870;13.210;2024-02-21T09:15:47;99345.19;;;2.73;83.16
82575;BME280;72260;65.870;13.210;2024-02-21T09:18:13;99341.41;;;2.79;81.77
82575;BME280;72260;65.870;13.210;2024-02-21T09:20:38;99339.66;;;2.79;81.95
82575;BME280;72260;65.870;13.210;2024-02-21T09:23:04;99337.34;;;2.73;82.01
82575;BME280;72260;65.870;13.210;2024-02-21T09:25:29;99345.78;;;2.61;82.63
82575;BME280;72260;65.870;13.210;2024-02-21T09:27:55;99341.50;;;2.60;83.04
82575;BME280;72260;65.870;13.210;2024-02-21T09:30:22;99352.03;;;2.58;83.47
82575;BME280;72260;65.870;13.210;2024-02-21T09:32:47;99345.78;;;2.61;84.01
82575;BME280;72260;65.870;13.210;2024-02-21T09:35:13;99345.47;;;2.67;83.10
82575;BME280;72260;65.870;13.210;2024-02-21T09:37:39;99337.72;;;2.83;82.52
82575;BME280;72260;65.870;13.210;2024-02-21T09:40:05;99338.84;;;2.94;81.53
82575;BME280;72260;65.870;13.210;2024-02-21T09:42:39;99345.94;;;2.92;80.96
82575;BME280;72260;65.870;13.210;2024-02-21T09:45:15;99350.13;;;2.95;80.74
82575;BME280;72260;65.870;13.210;2024-02-21T09:50:34;99343.78;;;2.83;81.24
82575;BME280;72260;65.870;13.210;2024-02-21T09:53:00;99355.00;;;2.85;82.07
82575;BME280;72260;65.870;13.210;2024-02-21T09:55:29;99352.38;;;2.68;82.63
82575;BME280;72260;65.870;13.210;2024-02-21T09:57:58;99352.38;;;2.68;82.69
82575;BME280;72260;65.870;13.210;2024-02-21T10:00:24;99359.91;;;2.40;84.31
82575;BME280;72260;65.870;13.210;2024-02-21T10:02:49;99371.25;;;2.39;84.52
82575;BME280;72260;65.870;13.210;2024-02-21T10:05:16;99355.69;;;2.37;84.63
82575;BME280;72260;65.870;13.210;2024-02-21T10:07:43;99359.91;;;2.40;84.37
82575;BME280;72260;65.870;13.210;2024-02-21T10:10:09;99363.34;;;2.40;84.67
82575;BME280;72260;65.870;13.210;2024-02-21T10:12:35;99374.00;;;2.35;85.07
82575;BME280;72260;65.870;13.210;2024-02-21T10:15:04;99375.41;;;2.43;84.99
82575;BME280;72260;65.870;13.210;2024-02-21T10:17:32;99379.16;;;2.37;83.80
82575;BME280;72260;65.870;13.210;2024-02-21T10:20:10;99379.56;;;2.47;83.85
82575;BME280;72260;65.870;13.210;2024-02-21T10:22:37;99387.44;;;2.45;83.90
82575;BME280;72260;65.870;13.210;2024-02-21T10:25:14;99389.38;;;2.42;85.22
82575;BME280;72260;65.870;13.210;2024-02-21T10:27:40;99380.25;;;2.50;84.56
82575;BME280;72260;65.870;13.210;2024-02-21T10:30:08;99377.84;;;2.63;84.58
82575;BME280;72260;65.870;13.210;2024-02-21T10:32:51;99381.41;;;2.79;83.55
82575;BME280;72260;65.870;13.210;2024-02-21T10:35:31;99384.53;;;3.03;81.80
82575;BME280;72260;65.870;13.210;2024-02-21T10:37:58;99384.91;;;3.13;81.11
82575;BME280;72260;65.870;13.210;2024-02-21T10:40:25;99389.50;;;3.25;81.00
82575;BME280;72260;65.870;13.210;2024-02-21T10:42:56;99391.47;;;3.37;80.04
82575;BME280;72260;65.870;13.210;2024-02-21T10:45:29;99376.19;;;3.29;79.56
82575;BME280;72260;65.870;13.210;2024-02-21T10:48:01;99372.00;;;3.43;79.45
82575;BME280;72260;65.870;13.210;2024-02-21T10:50:32;99383.84;;;3.50;79.75
82575;BME280;72260;65.870;13.210;2024-02-21T10:53:04;99385.38;;;3.54;79.72
82575;BME280;72260;65.870;13.210;2024-02-21T10:55:41;99366.22;;;3.53;79.59
82575;BME280;72260;65.870;13.210;2024-02-21T10:58:10;99371.88;;;3.61;78.82
82575;BME280;72260;65.870;13.210;2024-02-21T11:00:37;99376.09;;;3.95;79.75
82575;BME280;72260;65.870;13.210;2024-02-21T11:03:03;99367.47;;;4.41;80.62
82575;BME280;72260;65.870;13.210;2024-02-21T11:05:29;99362.53;;;4.80;77.08
82575;BME280;72260;65.870;13.210;2024-02-21T11:07:55;99368.56;;;5.11;75.08
82575;BME280;72260;65.870;13.210;2024-02-21T11:10:25;99362.78;;;5.20;72.05
82575;BME280;72260;65.870;13.210;2024-02-21T11:13:07;99365.34;;;4.77;73.01
82575;BME280;72260;65.870;13.210;2024-02-21T11:15:33;99364.59;;;4.89;73.79
82575;BME280;72260;65.870;13.210;2024-02-21T11:17:59;99363.31;;;4.96;73.08
82575;BME280;72260;65.870;13.210;2024-02-21T11:20:35;99358.38;;;5.06;72.92
82575;BME280;72260;65.870;13.210;2024-02-21T11:23:01;99359.22;;;5.21;72.76
82575;BME280;72260;65.870;13.210;2024-02-21T11:25:30;99357.88;;;4.85;73.52
82575;BME280;72260;65.870;13.210;2024-02-21T11:28:03;99365.81;;;4.84;73.57
82575;BME280;72260;65.870;13.210;2024-02-21T11:30:33;99372.38;;;4.61;74.15
82575;BME280;72260;65.870;13.210;2024-02-21T11:33:06;99371.16;;;4.52;75.08
82575;BME280;72260;65.870;13.210;2024-02-21T11:35:33;99373.75;;;4.22;76.91
82575;BME280;72260;65.870;13.210;2024-02-21T11:38:12;99372.28;;;4.32;76.25
82575;BME280;72260;65.870;13.210;2024-02-21T11:40:46;99360.69;;;4.52;75.32
82575;BME280;72260;65.870;13.210;2024-02-21T11:43:12;99362.53;;;4.80;73.51
82575;BME280;72260;65.870;13.210;2024-02-21T11:45:37;99355.34;;;4.84;73.12
82575;BME280;72260;65.870;13.210;2024-02-21T11:48:07;99357.38;;;4.79;72.19
82575;BME280;72260;65.870;13.210;2024-02-21T11:50:35;99355.03;;;4.74;72.17
82575;BME280;72260;65.870;13.210;2024-02-21T11:53:02;99353.69;;;4.67;71.84
82575;BME280;72260;65.870;13.210;2024-02-21T11:55:28;99356.09;;;4.56;72.48
82575;BME280;72260;65.870;13.210;2024-02-21T11:57:54;99370.91;;;4.41;74.62
82575;BME280;72260;65.870;13.210;2024-02-21T12:00:20;99366.56;;;4.10;76.19
82575;BME280;72260;65.870;13.210;2024-02-21T12:02:46;99357.19;;;3.90;76.90
82575;BME280;72260;65.870;13.210;2024-02-21T12:05:12;99360.75;;;3.74;78.38
82575;BME280;72260;65.870;13.210;2024-02-21T12:07:37;99350.38;;;3.56;79.29
82575;BME280;72260;65.870;13.210;2024-02-21T12:10:13;99351.31;;;3.55;79.54
82575;BME280;72260;65.870;13.210;2024-02-21T12:12:39;99339.16;;;3.54;79.39
82575;BME280;72260;65.870;13.210;2024-02-21T12:15:06;99349.47;;;3.57;79.59
82575;BME280;72260;65.870;13.210;2024-02-21T12:17:39;99346.44;;;3.32;80.35
82575;BME280;72260;65.870;13.210;2024-02-21T12:20:06;99334.91;;;3.36;81.58
82575;BME280;72260;65.870;13.210;2024-02-21T12:22:36;99338.94;;;3.26;80.56
82575;BME280;72260;65.870;13.210;2024-02-21T12:25:22;99344.75;;;3.15;80.49
82575;BME280;72260;65.870;13.210;2024-02-21T12:27:49;99329.66;;;2.87;82.35
82575;BME280;72260;65.870;13.210;2024-02-21T12:30:15;99337.41;;;2.72;83.30
82575;BME280;72260;65.870;13.210;2024-02-21T12:32:41;99326.13;;;2.88;83.02
82575;BME280;72260;65.870;13.210;2024-02-21T12:35:07;99316.13;;;2.96;80.73
82575;BME280;72260;65.870;13.210;2024-02-21T12:37:33;99318.63;;;2.82;81.90
82575;BME280;72260;65.870;13.210;2024-02-21T12:40:01;99318.66;;;2.98;81.88
82575;BME280;72260;65.870;13.210;2024-02-21T12:42:32;99316.88;;;2.98;82.19
82575;BME280;72260;65.870;13.210;2024-02-21T12:44:59;99313.34;;;2.99;82.36
82575;BME280;72260;65.870;13.210;2024-02-21T12:47:24;99311.56;;;3.17;81.47
82575;BME280;72260;65.870;13.210;2024-02-21T12:49:52;99317.16;;;3.10;81.33
82575;BME280;72260;65.870;13.210;2024-02-21T12:52:18;99300.91;;;3.04;81.98
82575;BME280;72260;65.870;13.210;2024-02-21T12:54:44;99309.94;;;3.15;81.56
82575;BME280;72260;65.870;13.210;2024-02-21T12:57:09;99301.75;;;3.05;81.45
82575;BME280;72260;65.870;13.210;2024-02-21T12:59:35;99313.63;;;3.11;81.10
82575;BME280;72260;65.870;13.210;2024-02-21T13:02:00;99301.59;;;3.08;80.73
82575;BME280;72260;65.870;13.210;2024-02-21T13:04:26;99298.25;;;3.22;82.11
82575;BME280;72260;65.870;13.210;2024-02-21T13:06:52;99301.22;;;3.79;79.31